Time;durP1;ratioP1;P1;durP2;ratioP2;P2;SDS_P1;SDS_P2;PMS_P1;PMS_P2;Temp;Humidity;BMP_temperature;BMP_pressure;BME280_temperature;BME280_humidity;BME280_pressure;Samples;Min_cycle;Max_cycle;Signal;HPM_P1;HPM_P2
2022/09/28 00:01:06;;;;;;;7.95;5.70;;;;;;;10.09;83.85;98231.00;5093710;28;20048;-53
2022/09/28 00:03:36;;;;;;;7.03;5.68;;;;;;;10.15;84.05;98232.31;5093863;28;20062;-53
2022/09/28 00:06:05;;;;;;;9.18;6.65;;;;;;;10.22;83.05;98239.19;5094017;28;20056;-54
2022/09/28 00:08:33;;;;;;;7.37;5.77;;;;;;;10.20;83.68;98228.44;5103270;28;20063;-54
2022/09/28 00:11:04;;;;;;;9.05;7.07;;;;;;;10.27;84.29;98230.56;5103528;28;20048;-54
2022/09/28 00:13:32;;;;;;;10.13;6.57;;;;;;;10.34;84.00;98227.94;5093398;28;20063;-53
2022/09/28 00:16:02;;;;;;;7.57;5.32;;;;;;;10.42;84.60;98215.00;5105066;28;20085;-54
2022/09/28 00:18:32;;;;;;;8.30;5.93;;;;;;;10.45;84.05;98209.47;5093793;28;20535;-55
2022/09/28 00:21:04;;;;;;;6.28;4.82;;;;;;;10.46;83.23;98222.22;5112001;28;20054;-52
2022/09/28 00:23:32;;;;;;;4.85;4.18;;;;;;;10.30;82.61;98221.50;5103618;28;20388;-51
2022/09/28 00:26:02;;;;;;;5.30;4.38;;;;;;;10.35;82.33;98213.69;5093540;28;20066;-51
2022/09/28 00:28:30;;;;;;;6.78;3.85;;;;;;;10.38;81.44;98208.56;5093580;28;20501;-54
2022/09/28 00:30:57;;;;;;;5.53;4.10;;;;;;;10.33;81.59;98209.63;5093214;28;20412;-52
2022/09/28 00:33:25;;;;;;;4.10;3.60;;;;;;;10.40;82.06;98203.41;5093263;28;20056;-54
2022/09/28 00:35:57;;;;;;;5.10;4.20;;;;;;;10.45;81.35;98198.34;5093802;28;20431;-53
2022/09/28 00:38:27;;;;;;;6.65;4.47;;;;;;;10.51;82.61;98202.44;5093000;28;20052;-54
2022/09/28 00:40:58;;;;;;;3.88;3.30;;;;;;;10.56;81.61;98210.50;5102356;28;20043;-52
2022/09/28 00:43:27;;;;;;;6.40;3.80;;;;;;;10.61;81.63;98205.78;5112565;28;20059;-54
2022/09/28 00:46:00;;;;;;;5.32;4.15;;;;;;;10.62;81.96;98210.97;5112581;28;20539;-52
2022/09/28 00:48:33;;;;;;;5.05;3.97;;;;;;;10.64;80.79;98196.69;5113071;28;20055;-54
2022/09/28 00:51:09;;;;;;;4.70;3.30;;;;;;;10.59;80.20;98208.13;5113242;28;20063;-54
2022/09/28 00:53:39;;;;;;;4.13;3.60;;;;;;;10.52;80.04;98197.66;5109531;28;20420;-54
2022/09/28 00:56:11;;;;;;;5.10;3.92;;;;;;;10.63;81.63;98204.25;5092838;28;20508;-55
2022/09/28 00:58:41;;;;;;;4.88;3.50;;;;;;;10.65;80.54;98206.66;5092995;28;20060;-55
2022/09/28 01:01:09;;;;;;;6.45;4.00;;;;;;;10.63;80.18;98201.44;5092942;28;20047;-55
2022/09/28 01:03:40;;;;;;;5.50;4.07;;;;;;;10.71;79.77;98197.63;5092906;28;20071;-52
2022/09/28 01:06:09;;;;;;;4.90;3.92;;;;;;;10.65;79.28;98201.09;5108429;28;20071;-51
2022/09/28 01:08:38;;;;;;;;;;;;;;;10.65;78.79;98203.88;5093216;28;20258;-53
2022/09/28 01:11:05;;;;;;;5.95;4.40;;;;;;;10.63;78.94;98206.22;5093187;28;20287;-52
2022/09/28 01:13:34;;;;;;;9.25;4.78;;;;;;;10.60;78.43;98195.81;5092738;28;20533;-51
2022/09/28 01:16:12;;;;;;;7.65;4.60;;;;;;;10.54;77.85;98196.13;5092440;28;20390;-52
2022/09/28 01:18:49;;;;;;;5.57;3.80;;;;;;;10.48;77.82;98197.63;5092569;28;20052;-52
2022/09/28 01:21:19;;;;;;;6.30;4.63;;;;;;;10.42;78.24;98195.50;5098111;28;20048;-54
2022/09/28 01:24:20;;;;;;;6.13;4.15;;;;;;;10.39;77.72;98199.81;5094596;28;20070;-52
2022/09/28 01:27:00;;;;;;;5.13;3.90;;;;;;;10.36;78.31;98195.00;5093091;28;20055;-53
2022/09/28 01:29:45;;;;;;;6.40;3.90;;;;;;;10.42;79.11;98196.31;5092892;28;20433;-54
2022/09/28 01:32:20;;;;;;;5.82;4.32;;;;;;;10.43;79.17;98197.09;5092407;28;20063;-54
2022/09/28 01:34:55;;;;;;;4.60;3.88;;;;;;;10.51;78.36;98199.63;5091493;28;20432;-53
2022/09/28 01:37:30;;;;;;;7.03;4.95;;;;;;;10.52;78.75;98190.13;5092285;28;20071;-51
2022/09/28 01:40:02;;;;;;;5.72;4.07;;;;;;;10.59;79.06;98195.00;5092216;28;20486;-54
2022/09/28 01:42:34;;;;;;;5.70;4.28;;;;;;;10.64;79.07;98185.56;5092451;28;20056;-53
2022/09/28 01:45:09;;;;;;;5.35;4.13;;;;;;;10.65;78.21;98195.53;5092423;28;20056;-53
2022/09/28 01:47:40;;;;;;;5.47;3.95;;;;;;;10.67;79.04;98196.75;5092364;28;20051;-55
2022/09/28 01:50:13;;;;;;;7.32;4.20;;;;;;;10.66;77.78;98188.75;5092196;28;20052;-53
2022/09/28 01:52:46;;;;;;;5.18;4.10;;;;;;;10.66;78.25;98191.53;5091991;28;20063;-56
2022/09/28 01:55:21;;;;;;;5.30;4.32;;;;;;;10.63;78.72;98187.53;5094255;28;20052;-55
2022/09/28 01:57:55;;;;;;;5.88;3.90;;;;;;;10.67;78.94;98193.16;5112591;28;20597;-56
2022/09/28 02:00:25;;;;;;;7.07;4.72;;;;;;;10.67;78.41;98184.81;5112329;28;20062;-54
2022/09/28 02:02:56;;;;;;;;;;;;;;;10.69;79.61;98186.06;5094079;28;20048;-52
2022/09/28 02:05:28;;;;;;;4.85;4.05;;;;;;;10.69;78.32;98188.03;5108784;28;19942;-53
2022/09/28 02:07:59;;;;;;;6.57;4.18;;;;;;;10.73;79.05;98189.69;5112445;28;20060;-53
2022/09/28 02:10:33;;;;;;;4.85;3.63;;;;;;;10.75;78.99;98187.34;5106977;28;20060;-57
2022/09/28 02:13:05;;;;;;;5.00;3.67;;;;;;;10.78;79.19;98185.81;5112084;28;20051;-53
2022/09/28 02:15:41;;;;;;;4.85;4.00;;;;;;;10.80;79.08;98191.78;5112311;28;20052;-55
2022/09/28 02:18:09;;;;;;;4.82;3.83;;;;;;;10.81;77.92;98193.41;5111540;28;20516;-60
2022/09/28 02:20:38;;;;;;;4.60;3.90;;;;;;;10.76;78.31;98186.16;5112209;28;20401;-60
2022/09/28 02:23:08;;;;;;;6.18;3.80;;;;;;;10.70;77.91;98184.06;5112443;28;20051;-61
2022/09/28 02:25:38;;;;;;;;;;;;;;;10.64;77.40;98186.34;5092502;28;20059;-61
2022/09/28 02:28:10;;;;;;;6.53;4.40;;;;;;;10.65;78.17;98184.38;5094329;28;19927;-61
2022/09/28 02:30:39;;;;;;;5.82;4.75;;;;;;;10.65;77.79;98193.53;5097576;28;20055;-61
2022/09/28 02:33:12;;;;;;;6.22;4.60;;;;;;;10.65;77.54;98187.97;5099028;28;20052;-60
2022/09/28 02:35:42;;;;;;;5.28;4.63;;;;;;;10.66;77.69;98183.19;5095017;28;20074;-61
2022/09/28 02:38:11;;;;;;;4.50;4.05;;;;;;;10.70;78.47;98186.84;5095521;28;20420;-61
2022/09/28 02:40:39;;;;;;;8.60;5.75;;;;;;;10.68;77.68;98186.41;5095574;28;20063;-61
2022/09/28 02:43:23;;;;;;;8.35;5.30;;;;;;;10.69;78.19;98186.06;5095391;28;20420;-61
2022/09/28 02:46:00;;;;;;;6.55;5.35;;;;;;;10.68;78.13;98186.41;5095261;28;20064;-61
2022/09/28 02:48:46;;;;;;;5.72;5.18;;;;;;;10.69;77.27;98194.41;5095195;28;20059;-61
2022/09/28 02:51:30;;;;;;;7.53;6.13;;;;;;;10.63;77.03;98189.53;5105432;28;20423;-61
2022/09/28 02:54:16;;;;;;;6.85;6.00;;;;;;;10.61;77.44;98181.53;5073393;28;20531;-60
2022/09/28 02:56:56;;;;;;;8.63;7.00;;;;;;;10.59;77.01;98186.66;5058033;28;20060;-61
2022/09/28 02:59:39;;;;;;;8.45;6.90;;;;;;;10.60;77.75;98198.59;5072507;28;20428;-61
2022/09/28 03:02:21;;;;;;;9.63;7.57;;;;;;;10.53;77.47;98202.06;5054986;28;20501;-61
2022/09/28 03:05:03;;;;;;;10.15;8.02;;;;;;;10.53;77.70;98199.28;5066773;28;20060;-59
2022/09/28 03:10:38;;;;;;;9.75;7.82;;;;;;;10.61;78.08;98192.66;5058202;28;20068;-60
2022/09/28 03:13:07;;;;;;;12.30;8.90;;;;;;;10.65;78.28;98199.09;5060045;28;20057;-61
2022/09/28 03:15:37;;;;;;;11.75;9.10;;;;;;;10.67;77.64;98205.09;5060577;28;20493;-59
2022/09/28 03:18:04;;;;;;;10.57;8.75;;;;;;;10.65;77.37;98195.53;5066650;28;20056;-60
2022/09/28 03:20:33;;;;;;;12.98;10.65;;;;;;;10.69;78.16;98199.19;5073795;28;20060;-60
2022/09/28 03:23:01;;;;;;;14.10;10.20;;;;;;;10.60;77.37;98201.38;5081534;28;20040;-59
2022/09/28 03:25:30;;;;;;;13.88;10.27;;;;;;;10.63;76.89;98206.22;5074692;28;20064;-60
2022/09/28 03:28:00;;;;;;;11.88;10.13;;;;;;;10.65;77.04;98192.75;5074379;28;20060;-60
2022/09/28 03:30:28;;;;;;;13.02;11.15;;;;;;;10.70;77.05;98195.19;5075757;28;20063;-60
2022/09/28 03:33:01;;;;;;;13.98;11.63;;;;;;;10.69;77.48;98196.38;5093820;28;20059;-60
2022/09/28 03:35:28;;;;;;;14.32;11.30;;;;;;;10.73;77.15;98205.59;5075170;28;20067;-60
2022/09/28 03:37:56;;;;;;;14.95;12.02;;;;;;;10.71;76.57;98194.84;5073457;28;20060;-60
2022/09/28 03:40:24;;;;;;;15.10;11.45;;;;;;;10.76;77.54;98197.31;5073582;28;20060;-60
2022/09/28 03:42:51;;;;;;;14.63;12.32;;;;;;;10.81;78.11;98196.19;5073710;28;20044;-60
2022/09/28 03:45:18;;;;;;;15.73;12.57;;;;;;;10.86;77.83;98197.88;5082987;28;20055;-59
2022/09/28 03:47:46;;;;;;;15.68;12.15;;;;;;;10.90;78.02;98198.75;5094205;28;20055;-60
2022/09/28 03:50:15;;;;;;;14.63;12.15;;;;;;;10.90;78.02;98199.53;5093239;28;20511;-60
2022/09/28 03:52:43;;;;;;;17.73;12.57;;;;;;;10.92;77.58;98197.19;5092978;28;20494;-60
2022/09/28 03:55:10;;;;;;;15.35;12.32;;;;;;;10.91;77.13;98195.56;5073743;28;20067;-60
2022/09/28 03:57:38;;;;;;;17.27;12.68;;;;;;;10.91;77.78;98198.34;5073929;28;20056;-60
2022/09/28 04:00:06;;;;;;;16.05;12.75;;;;;;;10.90;76.30;98196.75;5081924;28;20056;-60
2022/09/28 04:02:34;;;;;;;16.50;12.18;;;;;;;10.90;77.68;98193.97;5073736;28;20056;-60
2022/09/28 04:05:01;;;;;;;15.07;13.15;;;;;;;10.93;77.27;98193.19;5073786;28;20493;-60
2022/09/28 04:07:30;;;;;;;17.00;12.55;;;;;;;10.96;77.90;98189.69;5073388;28;20060;-60
2022/09/28 04:09:57;;;;;;;16.40;13.57;;;;;;;11.01;78.01;98191.34;5086327;28;20060;-60
2022/09/28 04:12:25;;;;;;;16.90;13.57;;;;;;;10.98;77.39;98194.88;5093464;28;20412;-60
2022/09/28 04:14:52;;;;;;;16.75;14.18;;;;;;;10.97;76.92;98194.06;5076541;28;20052;-60
2022/09/28 04:17:19;;;;;;;17.98;13.55;;;;;;;10.98;77.29;98194.88;5073593;28;20075;-60
2022/09/28 04:19:46;;;;;;;17.13;14.20;;;;;;;11.00;76.14;98194.50;5079366;28;20056;-60
2022/09/28 04:22:14;;;;;;;18.00;14.63;;;;;;;10.94;76.78;98194.00;5093765;28;20059;-60
2022/09/28 04:24:43;;;;;;;17.02;14.52;;;;;;;10.96;76.48;98203.63;5091484;28;20056;-60
2022/09/28 04:29:55;;;;;;;18.77;15.38;;;;;;;10.92;76.83;98205.53;5081763;28;20078;-59
2022/09/28 04:32:22;;;;;;;18.92;15.65;;;;;;;10.96;77.08;98208.34;5090468;28;20440;-60
2022/09/28 04:34:50;;;;;;;19.20;15.23;;;;;;;10.97;76.56;98209.97;5093118;28;20059;-60
2022/09/28 04:37:17;;;;;;;20.83;16.85;;;;;;;10.97;76.01;98202.41;5093162;28;20060;-60
2022/09/28 04:39:46;;;;;;;19.42;15.32;;;;;;;10.95;75.16;98207.56;5093150;28;20416;-59
2022/09/28 04:42:13;;;;;;;18.35;14.82;;;;;;;10.95;75.17;98202.00;5090781;28;20064;-59
2022/09/28 04:44:40;;;;;;;18.98;15.77;;;;;;;10.92;75.59;98201.94;5093260;28;20056;-60
2022/09/28 04:47:07;;;;;;;21.55;16.95;;;;;;;10.87;75.50;98202.25;5093453;28;20409;-60
2022/09/28 04:49:35;;;;;;;21.00;16.40;;;;;;;10.89;76.33;98211.84;5092428;28;20062;-59
2022/09/28 04:52:04;;;;;;;22.35;17.13;;;;;;;10.80;75.27;98205.72;5097215;28;20055;-60
2022/09/28 04:54:31;;;;;;;22.70;17.17;;;;;;;10.79;75.38;98206.88;5113317;28;20052;-60
2022/09/28 04:57:00;;;;;;;22.83;17.40;;;;;;;10.74;74.75;98205.22;5107588;28;20052;-60
2022/09/28 04:59:27;;;;;;;24.90;16.77;;;;;;;10.76;75.95;98202.88;5092780;28;20500;-60
2022/09/28 05:01:55;;;;;;;23.45;16.92;;;;;;;10.75;74.94;98211.59;5092850;28;20052;-58
2022/09/28 05:04:22;;;;;;;24.42;19.08;;;;;;;10.69;75.11;98221.44;5104566;28;20059;-60
2022/09/28 05:06:49;;;;;;;22.45;17.88;;;;;;;10.63;74.64;98214.56;5096100;28;20052;-59
2022/09/28 05:09:16;;;;;;;23.52;18.65;;;;;;;10.59;75.15;98216.50;5095931;28;20405;-60
2022/09/28 05:11:43;;;;;;;26.02;19.75;;;;;;;10.60;74.21;98212.50;5102981;28;20056;-60
2022/09/28 05:14:12;;;;;;;23.20;18.40;;;;;;;10.62;75.01;98212.94;5108944;28;20047;-60
2022/09/28 05:16:40;;;;;;;24.07;19.23;;;;;;;10.61;74.79;98214.13;5112914;28;20055;-60
2022/09/28 05:19:07;;;;;;;25.27;19.30;;;;;;;10.61;75.05;98216.94;5112838;28;20055;-60
2022/09/28 05:21:34;;;;;;;29.67;19.80;;;;;;;10.61;75.18;98216.94;5109293;28;20055;-60
2022/09/28 05:24:06;;;;;;;23.33;18.77;;;;;;;10.63;75.67;98206.22;5106048;28;20056;-60
2022/09/28 05:26:33;;;;;;;27.30;19.92;;;;;;;10.66;76.55;98216.59;5112864;28;20071;-60
2022/09/28 05:29:00;;;;;;;26.85;20.85;;;;;;;10.66;76.21;98213.81;5102975;28;20064;-60
2022/09/28 05:31:29;;;;;;;26.52;20.00;;;;;;;10.68;75.27;98208.69;5105222;28;20392;-60
2022/09/28 05:33:56;;;;;;;24.00;19.05;;;;;;;10.70;75.64;98218.28;5102615;28;20704;-60
2022/09/28 05:36:25;;;;;;;27.23;19.42;;;;;;;10.72;76.13;98215.13;5096616;28;20048;-59
2022/09/28 05:38:52;;;;;;;22.95;18.40;;;;;;;10.71;75.14;98208.75;5104266;28;20411;-57
2022/09/28 05:41:20;;;;;;;26.42;19.35;;;;;;;10.77;75.96;98206.44;5102470;28;20047;-56
2022/09/28 05:43:47;;;;;;;21.98;17.70;;;;;;;10.80;76.32;98211.28;5092664;28;20048;-60
2022/09/28 05:46:14;;;;;;;21.40;17.38;;;;;;;10.81;75.76;98207.31;5110011;28;20059;-60
2022/09/28 05:48:43;;;;;;;22.98;17.73;;;;;;;10.86;76.17;98218.16;5109537;28;20056;-58
2022/09/28 05:51:10;;;;;;;21.75;16.92;;;;;;;10.89;76.08;98209.06;5098925;28;20056;-59
2022/09/28 05:53:38;;;;;;;24.15;17.60;;;;;;;10.95;76.19;98210.34;5077325;28;20048;-60
2022/09/28 05:56:05;;;;;;;22.90;17.80;;;;;;;10.95;75.20;98218.69;5092091;28;20067;-60
2022/09/28 05:58:33;;;;;;;22.60;17.58;;;;;;;10.97;75.55;98215.56;5078187;28;20433;-60
2022/09/28 06:01:00;;;;;;;23.00;16.63;;;;;;;11.01;74.92;98210.84;5072632;28;20492;-60
2022/09/28 06:03:27;;;;;;;23.50;17.67;;;;;;;10.97;74.41;98215.56;5085628;28;20068;-60
2022/09/28 06:05:56;;;;;;;19.85;16.00;;;;;;;11.00;74.14;98211.22;5096222;28;20052;-60
2022/09/28 06:08:23;;;;;;;21.80;17.08;;;;;;;10.94;74.64;98210.72;5096255;28;20138;-60
2022/09/28 06:10:50;;;;;;;20.75;15.65;;;;;;;10.96;73.80;98217.53;5085449;28;20052;-60
2022/09/28 06:13:18;;;;;;;21.33;16.13;;;;;;;10.97;74.77;98216.34;5093267;28;20071;-60
2022/09/28 06:15:46;;;;;;;22.73;16.55;;;;;;;11.00;73.94;98214.00;5086200;28;20049;-60
2022/09/28 06:18:14;;;;;;;20.42;17.10;;;;;;;11.01;73.90;98213.63;5089130;28;20151;-60
2022/09/28 06:20:42;;;;;;;21.38;15.82;;;;;;;11.03;74.29;98216.84;5087435;28;20063;-60
2022/09/28 06:23:12;;;;;;;19.88;15.65;;;;;;;11.01;74.54;98226.75;5091220;28;20067;-60
2022/09/28 06:25:39;;;;;;;20.33;15.82;;;;;;;10.97;72.87;98227.50;5095845;28;20539;-59
2022/09/28 06:28:09;;;;;;;20.80;15.95;;;;;;;11.05;74.19;98227.63;5095418;28;20060;-60
2022/09/28 06:30:37;;;;;;;19.23;15.98;;;;;;;11.09;74.64;98234.88;5095000;28;20412;-60
2022/09/28 06:33:06;;;;;;;20.55;17.65;;;;;;;11.16;74.79;98248.09;5095840;28;20439;-59
2022/09/28 06:35:35;;;;;;;20.70;16.83;;;;;;;11.20;74.49;98246.19;5093586;28;20052;-60
2022/09/28 06:38:02;;;;;;;21.63;16.38;;;;;;;11.26;75.27;98247.47;5092895;28;20492;-59
2022/09/28 06:40:31;;;;;;;20.92;16.25;;;;;;;11.30;75.04;98245.53;5095531;28;20064;-60
2022/09/28 06:43:00;;;;;;;18.35;15.43;;;;;;;11.37;73.83;98254.00;5095055;28;20424;-60
2022/09/28 06:45:29;;;;;;;19.67;15.48;;;;;;;11.41;74.47;98251.28;5091818;28;20055;-60
2022/09/28 06:47:58;;;;;;;16.00;14.13;;;;;;;11.47;72.98;98258.16;5084298;28;20424;-60
2022/09/28 06:50:27;;;;;;;17.88;14.63;;;;;;;11.53;72.76;98253.06;5086625;28;20055;-60
2022/09/28 06:52:55;;;;;;;16.48;13.65;;;;;;;11.60;72.81;98253.16;5094610;28;20054;-60
2022/09/28 06:55:23;;;;;;;15.47;13.23;;;;;;;11.64;71.49;98251.22;5111652;28;20056;-60
2022/09/28 06:57:59;;;;;;;15.68;12.88;;;;;;;11.69;72.32;98261.25;5113720;28;20508;-60
2022/09/28 07:00:26;;;;;;;14.63;12.68;;;;;;;11.70;71.54;98252.53;5103237;28;20052;-60
2022/09/28 07:02:54;;;;;;;14.35;12.13;;;;;;;11.73;71.52;98257.31;5097667;28;20056;-60
2022/09/28 07:05:25;;;;;;;17.65;12.77;;;;;;;11.77;70.75;98257.38;5109398;28;20064;-59
2022/09/28 07:07:54;;;;;;;16.17;13.68;;;;;;;11.82;70.91;98264.63;5113678;28;20067;-59
2022/09/28 07:10:22;;;;;;;14.38;12.85;;;;;;;11.93;70.06;98269.22;5113426;28;20068;-57
2022/09/28 07:12:51;;;;;;;17.88;13.95;;;;;;;11.98;70.59;98268.88;5097219;28;20044;-60
2022/09/28 07:15:20;;;;;;;16.75;13.80;;;;;;;12.05;71.15;98272.94;5114033;28;20060;-59
2022/09/28 07:17:47;;;;;;;18.08;15.05;;;;;;;12.03;69.19;98278.88;5104796;28;20059;-59
2022/09/28 07:20:15;;;;;;;16.98;13.88;;;;;;;12.16;70.08;98280.28;5093963;28;20063;-60
2022/09/28 07:22:43;;;;;;;18.55;14.32;;;;;;;12.24;69.56;98274.78;5093224;28;20052;-59
2022/09/28 07:25:11;;;;;;;17.95;14.55;;;;;;;12.29;69.92;98277.25;5126211;27;20051;-60
2022/09/28 07:27:38;;;;;;;16.80;13.77;;;;;;;12.37;70.24;98281.72;5129962;27;20060;-60
2022/09/28 07:30:07;;;;;;;18.95;15.38;;;;;;;12.36;69.15;98275.31;5113370;28;20055;-59
2022/09/28 07:32:36;;;;;;;16.98;14.95;;;;;;;12.34;68.52;98283.28;5103108;28;20060;-59
2022/09/28 07:35:06;;;;;;;19.70;15.00;;;;;;;12.39;68.61;98276.56;5112521;28;20055;-59
2022/09/28 07:37:34;;;;;;;20.73;17.25;;;;;;;12.28;68.77;98281.19;5113710;28;20059;-60
2022/09/28 07:42:47;;;;;;;21.05;17.95;;;;;;;12.36;69.28;98288.47;5096518;28;20059;-60
2022/09/28 07:45:15;;;;;;;21.00;16.30;;;;;;;12.35;69.18;98298.06;5108662;28;20048;-60
2022/09/28 07:47:44;;;;;;;21.83;17.23;;;;;;;12.33;70.52;98298.44;5112947;28;20419;-59
2022/09/28 07:50:12;;;;;;;23.83;18.00;;;;;;;12.27;70.20;98299.16;5113300;28;20055;-60
2022/09/28 07:52:39;;;;;;;21.02;17.77;;;;;;;12.31;70.20;98300.78;5103317;28;20408;-59
2022/09/28 07:55:07;;;;;;;21.05;18.70;;;;;;;12.16;70.39;98308.19;5089656;28;20146;-59
2022/09/28 07:57:35;;;;;;;24.10;18.90;;;;;;;12.15;70.37;98309.34;5092439;28;20056;-58
2022/09/28 08:00:04;;;;;;;20.77;18.25;;;;;;;12.22;70.75;98307.84;5092296;28;20468;-59
2022/09/28 08:02:32;;;;;;;22.88;19.20;;;;;;;12.27;70.68;98310.31;5091822;28;20503;-59
2022/09/28 08:05:01;;;;;;;21.15;18.25;;;;;;;12.28;71.57;98323.88;5082806;28;20077;-59
2022/09/28 08:07:29;;;;;;;21.70;18.10;;;;;;;12.24;70.60;98322.22;5072262;28;20512;-59
2022/09/28 08:09:56;;;;;;;22.67;18.98;;;;;;;12.30;69.56;98315.13;5071613;28;20056;-59
2022/09/28 08:12:23;;;;;;;25.13;20.05;;;;;;;12.29;70.99;98316.31;5076796;28;20072;-60
2022/09/28 08:14:51;;;;;;;22.80;19.90;;;;;;;12.31;70.39;98325.13;5101228;28;20056;-59
2022/09/28 08:17:19;;;;;;;28.08;21.35;;;;;;;12.21;70.88;98323.00;5073214;28;20052;-60
2022/09/28 08:22:32;;;;;;;23.35;18.63;;;;;;;12.32;71.34;98324.72;5082311;28;20070;-59
2022/09/28 08:24:59;;;;;;;25.07;19.70;;;;;;;12.41;70.97;98326.44;5085192;28;20052;-59
2022/09/28 08:27:26;;;;;;;24.08;20.42;;;;;;;12.48;71.24;98332.13;5073108;28;20060;-59
2022/09/28 08:29:54;;;;;;;23.00;19.80;;;;;;;12.46;70.90;98332.50;5072236;28;20056;-59
2022/09/28 08:32:21;;;;;;;25.58;21.50;;;;;;;12.13;70.62;98331.25;5077904;28;20056;-59
2022/09/28 08:34:48;;;;;;;27.38;21.65;;;;;;;12.24;70.39;98336.19;5079957;28;20056;-59
2022/09/28 08:37:15;;;;;;;24.98;20.77;;;;;;;12.33;70.76;98339.50;5082805;28;20062;-58
2022/09/28 08:39:44;;;;;;;25.48;21.50;;;;;;;12.32;70.34;98338.69;5084892;28;20079;-59
2022/09/28 08:42:31;;;;;;;26.75;20.63;;;;;;;12.41;69.60;98345.97;5080372;28;20481;-59
2022/09/28 08:45:06;;;;;;;29.13;20.13;;;;;;;12.52;70.10;98344.13;5093048;28;20071;-59
2022/09/28 08:50:46;;;;;;;23.55;18.05;;;;;;;12.44;69.71;98348.81;5090676;28;20060;-59
2022/09/28 08:53:30;;;;;;;25.90;21.05;;;;;;;12.44;70.29;98346.03;5095216;28;20059;-59
2022/09/28 08:56:00;;;;;;;23.17;20.20;;;;;;;12.50;70.85;98361.25;5096765;28;20077;-59
2022/09/28 08:58:33;;;;;;;24.50;20.33;;;;;;;12.66;68.88;98363.03;5092221;28;20437;-59
2022/09/28 09:01:02;;;;;;;22.65;18.13;;;;;;;12.78;69.34;98371.19;5092053;28;20056;-59
2022/09/28 09:03:32;;;;;;;24.50;19.03;;;;;;;12.78;68.83;98354.41;5104944;28;20074;-59
2022/09/28 09:06:12;;;;;;;24.60;21.17;;;;;;;12.89;67.77;98360.13;5108892;28;20070;-59
2022/09/28 09:08:51;;;;;;;22.40;19.33;;;;;;;12.94;68.15;98365.38;5107758;28;20048;-59
2022/09/28 09:11:37;;;;;;;20.70;17.50;;;;;;;12.97;67.72;98373.00;5095986;28;20069;-60
2022/09/28 09:14:37;;;;;;;21.85;19.05;;;;;;;12.82;68.51;98385.19;5097289;28;20053;-59
2022/09/28 09:17:18;;;;;;;20.30;17.40;;;;;;;12.85;68.16;98387.22;5106772;28;20047;-59
2022/09/28 09:19:52;;;;;;;21.65;19.23;;;;;;;12.53;68.71;98382.84;5102054;28;20055;-58
2022/09/28 09:22:33;;;;;;;21.45;19.08;;;;;;;12.56;69.13;98381.28;5092386;28;20048;-59
2022/09/28 09:25:08;;;;;;;20.95;17.88;;;;;;;12.54;69.28;98384.47;5092214;28;20055;-59
2022/09/28 09:27:47;;;;;;;20.38;18.17;;;;;;;12.59;69.65;98389.69;5091347;28;20469;-59
2022/09/28 09:30:17;;;;;;;19.08;16.38;;;;;;;12.61;69.88;98389.31;5094458;28;20059;-59
2022/09/28 09:33:05;;;;;;;20.35;18.23;;;;;;;12.76;70.94;98391.09;5101391;28;20056;-60
2022/09/28 09:35:58;;;;;;;19.13;17.15;;;;;;;12.96;68.10;98388.97;5091113;28;20047;-60
2022/09/28 09:38:41;;;;;;;18.73;16.40;;;;;;;13.04;67.92;98401.03;5101738;28;20451;-59
2022/09/28 09:41:21;;;;;;;20.50;16.55;;;;;;;13.07;66.61;98403.06;5095238;28;20067;-60
2022/09/28 09:44:16;;;;;;;18.17;15.95;;;;;;;12.97;68.00;98404.53;5092035;28;20493;-60
2022/09/28 09:46:51;;;;;;;18.25;16.35;;;;;;;12.96;67.59;98402.13;5086248;28;20052;-60
2022/09/28 09:49:23;;;;;;;17.45;15.40;;;;;;;13.04;68.56;98406.63;5093117;28;20420;-60
2022/09/28 09:51:59;;;;;;;18.35;16.33;;;;;;;13.13;68.20;98406.31;5106002;28;20428;-60
2022/09/28 09:54:33;;;;;;;19.55;17.50;;;;;;;13.15;68.19;98407.53;5079239;28;20067;-60
2022/09/28 09:57:05;;;;;;;19.48;17.02;;;;;;;13.25;66.14;98410.81;5078277;28;20067;-59
2022/09/28 09:59:38;;;;;;;19.10;16.58;;;;;;;13.30;65.81;98411.31;5079698;28;20052;-59
2022/09/28 10:02:22;;;;;;;16.98;15.27;;;;;;;13.53;65.75;98411.16;5084742;28;20052;-60
2022/09/28 10:04:53;;;;;;;18.23;16.30;;;;;;;14.04;64.92;98409.56;5078917;28;20052;-59
2022/09/28 10:07:25;;;;;;;14.90;13.20;;;;;;;14.82;64.02;98417.69;5081285;28;20044;-59
2022/09/28 10:09:57;;;;;;;14.50;13.00;;;;;;;15.37;61.09;98410.25;5069811;28;20060;-60
2022/09/28 10:12:25;;;;;;;13.93;12.50;;;;;;;15.65;60.69;98412.31;5074741;28;20063;-59
2022/09/28 10:14:54;;;;;;;14.00;12.48;;;;;;;16.20;57.30;98411.94;5072893;28;20059;-59
2022/09/28 10:17:26;;;;;;;15.95;12.88;;;;;;;17.03;54.07;98406.94;5071020;28;20048;-60
2022/09/28 10:19:55;;;;;;;14.02;12.63;;;;;;;17.17;53.33;98410.88;5070300;28;20063;-60
2022/09/28 10:22:27;;;;;;;14.65;13.10;;;;;;;17.02;53.27;98412.97;5076117;28;20051;-60
2022/09/28 10:24:56;;;;;;;11.75;10.55;;;;;;;16.66;54.67;98413.06;5074931;28;20051;-59
2022/09/28 10:27:27;;;;;;;15.18;10.32;;;;;;;16.13;54.12;98420.38;5070383;28;20053;-59
2022/09/28 10:29:59;;;;;;;12.23;10.93;;;;;;;15.89;54.71;98421.19;5073413;28;20073;-60
2022/09/28 10:32:36;;;;;;;13.82;12.43;;;;;;;15.42;55.49;98418.28;5087501;28;20056;-60
2022/09/28 10:35:21;;;;;;;14.30;12.90;;;;;;;15.06;56.40;98431.41;5077822;28;20056;-60
2022/09/28 10:37:53;;;;;;;14.95;13.55;;;;;;;14.84;57.79;98431.31;5084863;28;20060;-60
2022/09/28 10:40:29;;;;;;;13.45;12.05;;;;;;;14.74;58.88;98432.88;5079748;28;20428;-60
2022/09/28 10:43:03;;;;;;;12.75;11.52;;;;;;;14.80;60.19;98430.47;5071371;28;20059;-60
2022/09/28 10:45:36;;;;;;;12.98;11.68;;;;;;;14.90;58.52;98440.94;5072744;28;20413;-59
2022/09/28 10:48:17;;;;;;;12.77;11.43;;;;;;;15.13;60.03;98431.44;5071757;28;20063;-60
2022/09/28 10:50:59;;;;;;;14.13;12.70;;;;;;;15.57;58.82;98424.72;5078236;28;20048;-59
2022/09/28 10:53:26;;;;;;;12.45;11.15;;;;;;;15.89;55.95;98441.63;5103199;28;20453;-58
2022/09/28 10:56:00;;;;;;;12.48;10.27;;;;;;;16.37;56.40;98434.81;5102119;28;20044;-60
2022/09/28 10:58:32;;;;;;;10.52;9.52;;;;;;;16.55;54.85;98429.16;5103283;28;20052;-60
2022/09/28 11:01:09;;;;;;;10.18;9.20;;;;;;;16.69;52.47;98439.56;5099374;28;20055;-60
2022/09/28 11:03:50;;;;;;;10.05;9.02;;;;;;;16.50;52.30;98435.97;5093940;28;20056;-59
2022/09/28 11:06:25;;;;;;;9.48;8.57;;;;;;;16.58;53.15;98434.75;5096386;28;20052;-60
2022/09/28 11:08:54;;;;;;;8.68;7.47;;;;;;;16.64;53.89;98435.94;5094407;28;20058;-59
2022/09/28 11:11:23;;;;;;;9.15;8.25;;;;;;;16.58;52.50;98431.94;5093512;28;20095;-59
2022/09/28 11:13:53;;;;;;;8.00;7.23;;;;;;;16.58;52.70;98434.75;5107556;28;20523;-59
2022/09/28 11:16:25;;;;;;;8.85;8.05;;;;;;;16.64;52.45;98433.13;5104149;28;20512;-60
2022/09/28 11:18:53;;;;;;;7.72;6.93;;;;;;;16.69;53.14;98433.94;5094722;28;20131;-60
2022/09/28 11:21:23;;;;;;;7.65;6.90;;;;;;;16.57;52.99;98433.16;5098169;28;20070;-59
2022/09/28 11:24:04;;;;;;;8.20;7.45;;;;;;;16.55;53.05;98431.97;5101147;28;20056;-59
2022/09/28 11:26:37;;;;;;;8.02;7.22;;;;;;;16.58;53.56;98422.72;5098035;28;20048;-58
2022/09/28 11:29:06;;;;;;;8.32;7.63;;;;;;;16.55;52.50;98435.56;5111974;28;20062;-62
2022/09/28 11:31:36;;;;;;;8.35;7.47;;;;;;;16.50;52.91;98433.16;5106197;28;20056;-60
2022/09/28 11:34:14;;;;;;;7.45;6.75;;;;;;;16.53;52.06;98426.75;5094892;28;20393;-60
2022/09/28 11:37:01;;;;;;;7.38;6.20;;;;;;;16.67;52.28;98434.31;5105402;28;20054;-57
2022/09/28 11:39:34;;;;;;;6.57;5.97;;;;;;;16.54;52.15;98424.72;5094809;28;20059;-59
2022/09/28 11:42:11;;;;;;;9.10;6.45;;;;;;;16.65;52.46;98431.13;5102101;28;20052;-59
2022/09/28 11:44:43;;;;;;;7.30;6.47;;;;;;;16.68;51.90;98438.75;5106370;28;20058;-59
2022/09/28 11:47:49;;;;;;;7.53;6.93;;;;;;;16.69;51.89;98443.16;5104561;28;20071;-59
2022/09/28 11:50:23;;;;;;;8.38;7.15;;;;;;;17.03;51.46;98440.69;5097688;28;20047;-60
2022/09/28 11:52:57;;;;;;;9.10;8.30;;;;;;;17.48;49.89;98439.25;5100370;28;20421;-60
2022/09/28 11:55:32;;;;;;;9.18;8.23;;;;;;;17.38;49.90;98436.09;5106429;28;20055;-59
2022/09/28 11:58:05;;;;;;;8.70;7.82;;;;;;;17.79;47.91;98440.28;5092993;28;20052;-60